Main page
METAR-TAF:

METAR-TAF

Airports :

Jersey,

Jersey Airport

latitude: 49-13N, longitude: 002-12W, elevation: 84 m

Current weather observation

The report was made 34 minutes ago, at 18:20 UTC
Wind 11 kt from the East
Temperature 10°C
Humidity 76%
Pressure 1019 hPa
Visibility 10 km or more
no clouds below 1500 m and no cumulonimbus

METAR: EGJJ 261820Z 09011KT CAVOK 10/06 Q1019 NOSIG

Time: 19:54 (18:54 UTC)

Forecast

The report was made 2 hours and 4 minutes ago, at 16:50 UTC
Forecast valid from 26 at 18 UTC to 27 at 03 UTC
Wind 11 kt from the East
Visibility 10 km or more
no clouds below 1500 m and no cumulonimbus

TAF: EGJJ 261650Z 2618/2703 09011KT CAVOK

Weather observations and forecasts of more than 4000 airports (METAR and TAF reports).

The available stations are represented by yellow and red dots on the map.

Hover mouse over dot to see the name of the station.

Then click to see weather observations and forecasts.

To change the map : click on the green buttons with a black cross to zoom in, on the green button with a dash to zoom out, or on the green arrows for adjacent maps.


METAR-TAF: